createdAt,value
2023-06-02T04:28:17.651Z,10.77
2023-06-02T04:29:19.718Z,10.97
2023-06-02T08:40:07.684Z,20.06
2023-06-02T08:42:23.580Z,19.19
2023-06-02T08:44:39.863Z,20.18
2023-06-02T08:46:54.336Z,19.97
2023-06-02T08:49:16.863Z,20.34
2023-06-02T08:51:42.181Z,20.38
2023-06-02T08:54:07.618Z,20.53
2023-06-02T08:56:34.775Z,19.96
2023-06-02T08:59:03.861Z,20.53
2023-06-02T09:01:43.326Z,21.11
2023-06-02T09:02:48.350Z,20.08
2023-06-02T09:05:14.979Z,20.87
2023-06-02T09:06:21.644Z,21.04
2023-06-02T09:09:01.755Z,20.94
2023-06-02T09:10:04.618Z,20.93
2023-06-02T09:12:49.176Z,20.91
2023-06-02T09:13:50.835Z,20.94
2023-06-02T09:15:10.502Z,21.19
2023-06-02T09:17:47.409Z,21.67
2023-06-02T09:18:57.750Z,21.65
2023-06-02T09:20:07.518Z,21.38
2023-06-02T09:21:24.915Z,21.30
2023-06-02T09:25:21.928Z,21.77
2023-06-02T09:26:26.973Z,21.65
2023-06-02T09:27:29.185Z,21.67
2023-06-02T09:28:32.364Z,21.58
2023-06-02T09:29:39.195Z,22.02
2023-06-02T09:32:52.634Z,22.41
2023-06-02T09:33:59.812Z,22.38
2023-06-02T09:35:02.326Z,21.89
2023-06-02T09:36:05.789Z,22.00
2023-06-02T09:37:17.916Z,22.17
2023-06-02T09:38:19.348Z,22.32
2023-06-02T09:39:35.767Z,22.56
2023-06-02T09:40:38.935Z,22.78
2023-06-02T09:41:41.586Z,22.70
2023-06-02T09:42:45.052Z,22.66
2023-06-02T09:43:47.146Z,22.73
2023-06-02T09:45:08.976Z,22.98
2023-06-02T09:46:11.260Z,22.80
2023-06-02T09:47:25.394Z,22.40
2023-06-02T09:48:30.522Z,22.37
2023-06-02T09:49:41.538Z,22.39
2023-06-02T09:50:43.035Z,22.63
2023-06-02T09:51:44.537Z,22.28
2023-06-02T09:55:21.562Z,22.56
2023-06-02T09:56:23.647Z,22.56
2023-06-02T09:57:25.869Z,22.89
2023-06-02T09:58:28.658Z,22.96
2023-06-02T09:59:30.840Z,23.25
2023-06-02T10:00:33.275Z,22.85
2023-06-02T10:01:36.129Z,22.66
2023-06-02T10:02:38.475Z,23.12
2023-06-02T10:03:46.143Z,23.09
2023-06-02T10:04:47.737Z,22.87
2023-06-02T10:06:03.043Z,23.22
2023-06-02T10:07:15.051Z,22.63
2023-06-02T10:08:30.674Z,23.00
2023-06-02T10:09:59.619Z,23.44
2023-06-02T10:11:21.164Z,23.52
2023-06-02T10:12:53.183Z,23.87
2023-06-02T10:14:09.854Z,23.71
2023-06-02T10:15:42.794Z,23.26
2023-06-02T10:17:06.274Z,23.40
2023-06-02T10:18:13.531Z,23.80
2023-06-02T10:19:42.916Z,23.26
2023-06-02T10:21:01.801Z,23.55
2023-06-02T10:22:24.975Z,22.58
2023-06-02T10:23:48.958Z,23.55
2023-06-02T10:25:14.820Z,23.60
2023-06-02T10:26:33.373Z,24.16
2023-06-02T10:27:37.623Z,24.37
2023-06-02T10:28:39.453Z,24.79
2023-06-02T10:29:41.439Z,24.54
2023-06-02T10:30:42.971Z,24.03
2023-06-02T10:31:45.509Z,24.10
2023-06-02T10:32:50.087Z,23.86
2023-06-02T10:33:51.721Z,24.23
2023-06-02T10:34:54.452Z,23.47
2023-06-02T10:36:01.217Z,24.00
2023-06-02T10:37:05.954Z,23.91
2023-06-02T10:38:32.438Z,23.47
2023-06-02T10:39:41.029Z,23.99
2023-06-02T10:40:53.348Z,23.84
2023-06-02T10:42:12.126Z,24.11
2023-06-02T10:43:13.855Z,24.53
2023-06-02T10:44:26.873Z,24.77
2023-06-02T10:45:28.386Z,24.25
2023-06-02T10:46:29.850Z,24.72
2023-06-02T10:47:35.164Z,25.10
2023-06-02T10:48:41.163Z,24.90
2023-06-02T10:50:01.836Z,24.15
2023-06-02T10:51:04.255Z,24.20
2023-06-02T10:52:10.051Z,23.62
2023-06-02T10:53:11.900Z,22.77
2023-06-02T10:54:14.169Z,22.61
2023-06-02T10:55:17.418Z,22.30
2023-06-02T10:56:37.044Z,23.47
2023-06-02T10:57:55.074Z,23.70
2023-06-02T10:58:56.658Z,24.35
2023-06-02T10:59:58.177Z,23.47
2023-06-02T11:00:59.659Z,24.41
2023-06-02T11:02:01.237Z,24.86
2023-06-02T11:03:04.268Z,25.39
2023-06-02T11:04:29.258Z,24.87
2023-06-02T11:05:32.722Z,25.24
2023-06-02T11:06:34.710Z,25.02
2023-06-02T11:07:36.254Z,24.78
2023-06-02T11:08:38.121Z,24.65
2023-06-02T11:09:44.372Z,25.00
2023-06-02T11:10:55.742Z,24.86
2023-06-02T11:11:57.185Z,24.63
2023-06-02T11:12:58.721Z,24.22
2023-06-02T11:14:00.728Z,24.15
2023-06-02T11:15:05.606Z,24.34
2023-06-02T11:16:07.781Z,24.31
2023-06-02T11:17:37.491Z,25.30
2023-06-02T11:18:38.986Z,25.37
2023-06-02T11:19:50.841Z,25.62
2023-06-02T11:21:03.378Z,25.83
2023-06-02T11:22:05.669Z,26.40
2023-06-02T11:23:08.110Z,25.85
2023-06-02T11:24:12.364Z,25.51
2023-06-02T11:25:15.729Z,26.16
2023-06-02T11:26:22.566Z,26.76
2023-06-02T11:27:41.142Z,26.64
2023-06-02T11:28:42.544Z,26.33
2023-06-02T11:29:45.716Z,26.10
2023-06-02T11:30:48.066Z,25.08
2023-06-02T11:31:49.818Z,25.66
2023-06-02T11:32:52.808Z,25.83
2023-06-02T11:33:55.909Z,25.78
2023-06-02T11:35:04.560Z,25.40
2023-06-02T11:36:10.944Z,26.35
2023-06-02T11:37:15.721Z,26.84
2023-06-02T11:38:20.088Z,26.82
2023-06-02T11:39:22.207Z,26.53
2023-06-02T11:40:23.769Z,26.17
2023-06-02T11:41:26.019Z,26.60
2023-06-02T11:42:45.483Z,27.32
2023-06-02T11:43:49.539Z,27.52
2023-06-02T11:44:51.264Z,27.28
2023-06-02T11:45:52.806Z,26.50
2023-06-02T11:46:54.302Z,26.00
2023-06-02T11:48:11.195Z,26.19
2023-06-02T11:49:12.952Z,26.27
2023-06-02T11:50:21.524Z,26.26
2023-06-02T11:51:23.841Z,25.57
2023-06-02T11:52:25.381Z,25.51
2023-06-02T11:53:26.780Z,25.62
2023-06-02T11:54:28.268Z,26.01
2023-06-02T11:55:33.359Z,26.13
2023-06-02T11:56:36.535Z,26.57
2023-06-02T11:57:38.013Z,25.90
2023-06-02T11:58:43.857Z,26.13
2023-06-02T11:59:45.311Z,26.30
2023-06-02T12:00:46.966Z,26.80
2023-06-02T12:01:49.700Z,26.95
2023-06-02T12:02:54.356Z,27.39
2023-06-02T12:04:01.166Z,27.14
2023-06-02T12:05:03.028Z,27.05
2023-06-02T12:06:15.540Z,25.78
2023-06-02T12:07:17.035Z,25.95
2023-06-02T12:08:23.708Z,25.58
2023-06-02T12:09:30.657Z,25.95
2023-06-02T12:10:33.070Z,25.69
2023-06-02T12:11:34.708Z,25.96
2023-06-02T12:12:36.301Z,26.67
2023-06-02T12:13:37.771Z,27.09
2023-06-02T12:14:39.750Z,26.57
2023-06-02T12:15:41.270Z,27.47
2023-06-02T12:16:44.909Z,27.53
2023-06-02T12:17:47.128Z,27.84
2023-06-02T12:18:49.281Z,27.27
2023-06-02T12:19:58.617Z,26.85
2023-06-02T12:21:01.160Z,27.79
2023-06-02T12:22:17.490Z,27.18
2023-06-02T12:23:18.966Z,27.18
2023-06-02T12:24:40.232Z,27.47
2023-06-02T12:25:41.788Z,27.98
2023-06-02T12:26:45.377Z,28.34
2023-06-02T12:27:47.931Z,27.95
2023-06-02T12:28:51.164Z,27.06
2023-06-02T12:29:53.706Z,27.62
2023-06-02T12:30:55.188Z,27.22
2023-06-02T12:31:58.048Z,27.59
2023-06-02T12:33:14.983Z,28.03
2023-06-02T12:34:17.847Z,27.65
2023-06-02T12:35:19.234Z,28.11
2023-06-02T12:36:20.687Z,28.12
2023-06-02T12:37:22.308Z,27.86
2023-06-02T12:38:24.287Z,28.31
2023-06-02T12:39:25.942Z,28.87
2023-06-02T12:40:27.379Z,27.86
2023-06-02T12:41:28.950Z,28.38
2023-06-02T12:42:30.447Z,28.09
2023-06-02T12:43:31.932Z,28.08
2023-06-02T12:44:33.325Z,27.15
2023-06-02T12:45:34.792Z,27.88
2023-06-02T12:46:36.554Z,28.31
2023-06-02T12:47:38.359Z,27.60
2023-06-02T12:48:40.899Z,28.40
2023-06-02T12:49:42.349Z,28.79
2023-06-02T12:50:44.255Z,28.93
2023-06-02T12:51:46.115Z,28.21
2023-06-02T12:52:47.650Z,28.57
2023-06-02T12:53:49.625Z,28.29
2023-06-02T12:54:51.119Z,28.82
2023-06-02T12:55:52.860Z,28.82
2023-06-02T12:56:54.325Z,28.75
2023-06-02T12:57:56.178Z,28.59
2023-06-02T12:58:57.788Z,28.49
2023-06-02T13:00:01.545Z,27.93
2023-06-02T13:01:03.852Z,28.63
2023-06-02T13:02:05.948Z,29.16
2023-06-02T13:03:08.476Z,29.36
2023-06-02T13:04:10.252Z,29.04
2023-06-02T13:05:12.293Z,28.83
2023-06-02T13:06:14.022Z,28.88
2023-06-02T13:07:15.977Z,28.95
2023-06-02T13:08:17.403Z,29.03
2023-06-02T13:09:19.175Z,28.72
2023-06-02T13:10:21.617Z,29.12
2023-06-02T13:11:23.802Z,29.29
2023-06-02T13:12:25.260Z,29.08
2023-06-02T13:13:27.389Z,28.97
2023-06-02T13:14:29.102Z,28.84
2023-06-02T13:15:30.525Z,28.65
2023-06-02T13:16:32.425Z,29.21
2023-06-02T13:17:34.612Z,28.95
2023-06-02T13:18:36.368Z,29.01
2023-06-02T13:19:37.868Z,28.99
2023-06-02T13:20:40.633Z,28.93
2023-06-02T13:21:42.534Z,29.15
2023-06-02T13:22:44.042Z,29.38
2023-06-02T13:23:55.925Z,28.74
2023-06-02T13:24:57.682Z,28.79
2023-06-02T13:25:59.286Z,28.81
2023-06-02T13:27:01.648Z,28.50
2023-06-02T13:28:03.497Z,28.17
2023-06-02T13:29:05.105Z,28.41
2023-06-02T13:30:07.299Z,28.63
2023-06-02T13:31:08.743Z,29.21
2023-06-02T13:32:10.404Z,28.93
2023-06-02T13:33:12.042Z,27.46
2023-06-02T13:34:13.536Z,28.40
2023-06-02T13:35:15.450Z,28.67
2023-06-02T13:36:16.888Z,28.82
2023-06-02T13:37:18.427Z,28.85
2023-06-02T13:38:19.878Z,27.83
2023-06-02T13:39:21.594Z,27.64
2023-06-02T13:40:23.391Z,28.32
2023-06-02T13:41:24.884Z,28.82
2023-06-02T13:42:26.480Z,28.95
2023-06-02T13:43:28.020Z,29.20
2023-06-02T13:44:29.530Z,29.23
2023-06-02T13:45:31.019Z,28.70
2023-06-02T13:46:32.489Z,28.82
2023-06-02T13:47:34.053Z,28.43
2023-06-02T13:48:35.999Z,29.08
2023-06-02T13:49:37.809Z,29.62
2023-06-02T13:50:39.983Z,29.38
2023-06-02T13:51:41.601Z,29.63
2023-06-02T13:52:43.092Z,29.08
2023-06-02T13:53:44.527Z,28.80
2023-06-02T13:54:46.174Z,28.82
2023-06-02T13:55:47.689Z,28.93
2023-06-02T13:56:49.525Z,29.65
2023-06-02T13:57:51.431Z,29.65
2023-06-02T13:58:53.006Z,28.82
2023-06-02T13:59:54.468Z,28.86
2023-06-02T14:00:55.935Z,28.98
2023-06-02T14:01:58.868Z,29.03
2023-06-02T14:03:00.550Z,29.34
2023-06-02T14:04:02.152Z,28.56
2023-06-02T14:05:03.772Z,28.84
2023-06-02T14:06:05.578Z,28.28
2023-06-02T14:07:07.423Z,28.54
2023-06-02T14:08:08.814Z,28.96
2023-06-02T14:09:10.211Z,28.57
2023-06-02T14:10:11.927Z,28.40
2023-06-02T14:11:13.518Z,28.87
2023-06-02T14:12:15.105Z,29.03
2023-06-02T14:13:16.568Z,29.43
2023-06-02T14:14:18.502Z,29.57
2023-06-02T14:15:20.121Z,29.61
2023-06-02T14:16:21.693Z,29.38
2023-06-02T14:17:23.526Z,29.78
2023-06-02T14:18:25.035Z,29.93
2023-06-02T14:19:26.812Z,29.93
2023-06-02T14:20:28.347Z,29.37
2023-06-02T14:21:30.043Z,28.50
2023-06-02T14:22:31.448Z,27.87
2023-06-02T14:23:32.939Z,28.69
2023-06-02T14:24:34.412Z,29.44
2023-06-02T14:25:35.850Z,29.34
2023-06-02T14:26:37.481Z,28.93
2023-06-02T14:27:38.914Z,28.89
2023-06-02T14:28:40.450Z,29.14
2023-06-02T14:29:42.098Z,29.28
2023-06-02T14:30:44.136Z,28.78
2023-06-02T14:31:45.767Z,29.01
2023-06-02T14:32:47.365Z,29.53
2023-06-02T14:33:49.099Z,29.81
2023-06-02T14:34:50.714Z,29.89
2023-06-02T14:35:52.129Z,29.73
2023-06-02T14:36:53.681Z,28.88
2023-06-02T14:37:55.365Z,28.58
2023-06-02T14:38:56.989Z,28.89
2023-06-02T14:39:58.745Z,29.24
2023-06-02T14:41:00.840Z,28.82
2023-06-02T14:42:02.291Z,29.12
2023-06-02T14:43:04.081Z,28.32
2023-06-02T14:44:06.274Z,28.07
2023-06-02T14:45:08.166Z,28.82
2023-06-02T14:46:10.131Z,29.04
2023-06-02T14:47:11.645Z,29.19
2023-06-02T14:48:13.341Z,29.31
2023-06-02T14:49:14.845Z,29.06
2023-06-02T14:50:16.705Z,29.38
2023-06-02T14:51:18.693Z,29.72
2023-06-02T14:52:20.441Z,29.47
2023-06-02T14:53:21.929Z,28.64
2023-06-02T14:54:23.640Z,27.47
2023-06-02T14:55:25.670Z,28.50
2023-06-02T14:56:27.834Z,28.57
2023-06-02T14:57:29.808Z,28.65
2023-06-02T14:58:31.582Z,29.14
2023-06-02T14:59:33.071Z,29.25
2023-06-02T15:00:34.685Z,29.60
2023-06-02T15:01:36.664Z,29.84
2023-06-02T15:02:38.141Z,29.84
2023-06-02T15:03:42.531Z,29.70
2023-06-02T15:04:44.005Z,28.91
2023-06-02T15:05:45.503Z,29.13
2023-06-02T15:06:48.262Z,29.20
2023-06-02T15:07:49.653Z,28.86
2023-06-02T15:08:51.079Z,28.98
2023-06-02T15:09:52.584Z,29.20
2023-06-02T15:10:54.029Z,29.47
2023-06-02T15:11:55.877Z,29.40
2023-06-02T15:12:57.373Z,29.37
2023-06-02T15:13:59.089Z,29.24
2023-06-02T15:15:00.796Z,29.28
2023-06-02T15:16:03.594Z,29.60
2023-06-02T15:17:05.712Z,29.28
2023-06-02T15:18:07.308Z,28.78
2023-06-02T15:19:09.501Z,29.09
2023-06-02T15:20:11.753Z,29.25
2023-06-02T15:21:13.429Z,29.60
2023-06-02T15:22:15.810Z,29.45
2023-06-02T15:23:17.413Z,29.20
2023-06-02T15:24:18.872Z,29.30
2023-06-02T15:25:20.609Z,29.27
2023-06-02T15:26:22.416Z,29.23
2023-06-02T15:27:23.847Z,29.04
2023-06-02T15:28:25.277Z,28.77
2023-06-02T15:29:27.023Z,28.92
2023-06-02T15:30:30.268Z,28.97
2023-06-02T15:31:32.138Z,28.49
2023-06-02T15:32:33.898Z,28.49
2023-06-02T15:33:35.458Z,28.91
2023-06-02T15:34:36.997Z,28.88
2023-06-02T15:35:38.392Z,28.96
2023-06-02T15:36:41.523Z,28.92
2023-06-02T15:37:43.202Z,28.87
2023-06-02T15:38:44.644Z,28.63
2023-06-02T15:39:46.079Z,28.76
2023-06-02T15:40:47.599Z,28.46
2023-06-02T15:41:49.304Z,28.47
2023-06-02T15:42:50.976Z,28.44
2023-06-02T15:43:52.427Z,28.24
2023-06-02T15:44:53.860Z,28.26
2023-06-02T15:45:55.486Z,28.45
2023-06-02T15:46:57.503Z,28.31
2023-06-02T15:47:59.148Z,28.50
2023-06-02T15:49:00.604Z,28.42
2023-06-02T15:50:03.315Z,28.75
2023-06-02T15:51:05.239Z,28.80
2023-06-02T15:52:07.168Z,28.90
2023-06-02T15:53:08.668Z,28.30
2023-06-02T15:54:10.065Z,27.93
2023-06-02T15:55:12.156Z,27.69
2023-06-02T15:56:13.653Z,28.25
2023-06-02T15:57:15.283Z,28.24
2023-06-02T15:58:16.773Z,28.05
2023-06-02T15:59:18.457Z,27.83
2023-06-02T16:00:20.406Z,27.67
2023-06-02T16:01:23.746Z,27.56
2023-06-02T16:02:26.218Z,27.37
2023-06-02T16:03:27.827Z,27.57
2023-06-02T16:04:29.369Z,27.21
2023-06-02T16:05:31.098Z,26.59
2023-06-02T16:06:34.369Z,27.23
2023-06-02T16:07:36.027Z,27.40
2023-06-02T16:08:37.616Z,27.21
2023-06-02T16:09:39.282Z,27.36
2023-06-02T16:10:41.050Z,27.19
2023-06-02T16:11:43.472Z,26.96
2023-06-02T16:12:48.670Z,26.86
2023-06-02T16:13:51.119Z,26.77
2023-06-02T16:14:52.609Z,26.18
2023-06-02T16:15:55.384Z,25.46
2023-06-02T16:16:57.546Z,25.83
2023-06-02T16:17:59.235Z,26.29
2023-06-02T16:19:00.708Z,26.20
2023-06-02T16:20:02.335Z,26.27
2023-06-02T16:21:03.924Z,26.35
2023-06-02T16:22:06.091Z,26.43
2023-06-02T16:23:07.713Z,26.39
2023-06-02T16:24:09.284Z,26.50
2023-06-02T16:25:10.890Z,26.11
2023-06-02T16:26:16.050Z,26.10
2023-06-02T16:27:17.532Z,25.99
2023-06-02T16:28:18.985Z,25.75
2023-06-02T16:29:21.417Z,25.72
2023-06-02T16:30:23.775Z,25.64
2023-06-02T16:31:27.189Z,25.52
2023-06-02T16:32:28.829Z,25.24
2023-06-02T16:33:30.508Z,25.38
2023-06-02T16:34:32.042Z,25.36
2023-06-02T16:35:33.500Z,25.16
2023-06-02T16:36:35.060Z,24.91
2023-06-02T16:37:36.508Z,25.13
2023-06-02T16:38:43.722Z,25.08
2023-06-02T16:39:46.922Z,25.19
2023-06-02T16:40:48.367Z,25.06
2023-06-02T16:41:49.973Z,24.86
2023-06-02T16:42:51.361Z,24.73
2023-06-02T16:43:52.804Z,24.64
2023-06-02T16:44:54.972Z,24.57
2023-06-02T16:45:56.553Z,24.55
2023-06-02T16:46:58.142Z,24.64
2023-06-02T16:47:59.732Z,24.90
2023-06-02T16:49:01.287Z,24.80
2023-06-02T16:50:03.468Z,24.62
2023-06-02T16:51:05.136Z,24.56
2023-06-02T16:52:07.284Z,24.18
2023-06-02T16:53:09.594Z,24.10
2023-06-02T16:54:12.837Z,24.22
2023-06-02T16:55:14.633Z,24.39
2023-06-02T16:56:16.142Z,24.36
2023-06-02T16:57:17.610Z,24.29
2023-06-02T16:58:19.111Z,24.04
2023-06-02T16:59:21.550Z,23.91
2023-06-02T17:00:23.164Z,23.91
2023-06-02T17:01:28.404Z,23.83
2023-06-02T17:02:30.193Z,23.70
2023-06-02T17:03:31.870Z,23.79
2023-06-02T17:04:33.344Z,23.85
2023-06-02T17:05:34.815Z,23.58
2023-06-02T17:06:36.530Z,23.49
2023-06-02T17:07:38.064Z,23.39
2023-06-02T17:08:42.827Z,23.33
2023-06-02T17:09:44.349Z,23.36
2023-06-02T17:10:46.096Z,23.23
2023-06-02T17:11:48.206Z,23.21
2023-06-02T17:12:49.995Z,23.28
2023-06-02T17:13:53.121Z,23.22
2023-06-02T17:14:54.611Z,23.05
2023-06-02T17:21:29.573Z,22.75
2023-06-02T17:22:31.283Z,22.65
2023-06-02T17:27:42.930Z,22.09
2023-06-02T17:28:44.383Z,22.24
2023-06-02T17:33:49.873Z,22.24
2023-06-02T17:38:39.524Z,21.96
2023-06-02T17:43:02.482Z,21.60
2023-06-02T17:47:29.802Z,21.48
2023-06-02T17:52:05.030Z,21.30
